createdAt,value
2023-03-02T00:01:36.388Z,54.70
2023-03-02T00:04:05.973Z,55.60
2023-03-02T00:06:36.159Z,55.10
2023-03-02T00:09:06.181Z,54.90
2023-03-02T00:11:35.796Z,55.00
2023-03-02T00:14:02.898Z,54.90
2023-03-02T00:16:30.000Z,55.00
2023-03-02T00:18:57.732Z,54.90
2023-03-02T00:21:24.701Z,55.00
2023-03-02T00:23:52.623Z,55.10
2023-03-02T00:26:19.835Z,55.00
2023-03-02T00:28:47.064Z,55.10
2023-03-02T00:31:14.791Z,55.00
2023-03-02T00:33:42.149Z,55.10
2023-03-02T00:36:19.113Z,55.10
2023-03-02T00:38:46.585Z,55.10
2023-03-02T00:41:15.389Z,55.20
2023-03-02T00:43:42.951Z,55.20
2023-03-02T00:46:12.247Z,55.20
2023-03-02T00:48:39.803Z,55.20
2023-03-02T00:51:07.394Z,55.20
2023-03-02T00:53:36.128Z,55.20
2023-03-02T00:56:04.419Z,55.30
2023-03-02T00:58:34.174Z,55.40
2023-03-02T01:01:07.778Z,55.50
2023-03-02T01:03:38.122Z,55.60
2023-03-02T01:06:06.645Z,56.10
2023-03-02T01:08:34.710Z,55.70
2023-03-02T01:11:01.639Z,55.60
2023-03-02T01:13:29.353Z,55.50
2023-03-02T01:16:03.688Z,55.50
2023-03-02T01:18:30.975Z,55.30
2023-03-02T01:21:05.913Z,55.30
2023-03-02T01:23:33.158Z,55.30
2023-03-02T01:26:00.406Z,55.30
2023-03-02T01:28:27.486Z,55.40
2023-03-02T01:30:54.579Z,55.30
2023-03-02T01:33:21.919Z,55.20
2023-03-02T01:35:49.275Z,55.20
2023-03-02T01:38:16.461Z,55.30
2023-03-02T01:40:43.619Z,55.60
2023-03-02T01:43:16.394Z,55.70
2023-03-02T01:46:03.123Z,55.70
2023-03-02T01:48:54.701Z,55.70
2023-03-02T01:51:32.145Z,55.70
2023-03-02T01:54:03.952Z,55.60
2023-03-02T01:56:34.837Z,55.60
2023-03-02T01:59:09.167Z,55.60
2023-03-02T02:01:39.724Z,55.70
2023-03-02T02:04:08.100Z,55.60
2023-03-02T02:06:39.684Z,55.60
2023-03-02T02:09:10.527Z,55.40
2023-03-02T02:11:37.821Z,55.30
2023-03-02T02:14:06.593Z,55.40
2023-03-02T02:16:35.995Z,55.30
2023-03-02T02:19:08.479Z,55.20
2023-03-02T02:21:35.841Z,55.30
2023-03-02T02:24:11.960Z,55.40
2023-03-02T02:26:39.018Z,55.60
2023-03-02T02:29:13.861Z,55.60
2023-03-02T02:31:59.971Z,55.40
2023-03-02T02:34:39.749Z,55.30
2023-03-02T02:37:16.945Z,55.30
2023-03-02T02:39:47.959Z,55.30
2023-03-02T02:42:38.379Z,55.20
2023-03-02T02:45:16.154Z,55.40
2023-03-02T02:47:43.771Z,55.40
2023-03-02T02:50:26.159Z,55.40
2023-03-02T02:53:01.698Z,55.40
2023-03-02T02:55:30.443Z,55.40
2023-03-02T02:58:00.698Z,55.40
2023-03-02T03:00:29.279Z,55.40
2023-03-02T03:03:06.624Z,55.60
2023-03-02T03:05:33.738Z,55.70
2023-03-02T03:08:10.960Z,55.70
2023-03-02T03:10:41.492Z,55.70
2023-03-02T03:13:10.909Z,55.80
2023-03-02T03:15:38.481Z,55.80
2023-03-02T03:18:05.684Z,55.90
2023-03-02T03:20:33.527Z,56.00
2023-03-02T03:23:00.947Z,56.10
2023-03-02T03:25:32.192Z,55.90
2023-03-02T03:28:00.226Z,55.90
2023-03-02T03:30:27.435Z,55.90
2023-03-02T03:32:54.554Z,56.10
2023-03-02T03:35:22.112Z,56.30
2023-03-02T03:37:49.830Z,56.20
2023-03-02T03:40:18.614Z,56.10
2023-03-02T03:42:47.044Z,56.10
2023-03-02T03:45:14.266Z,56.10
2023-03-02T03:47:43.762Z,56.10
2023-03-02T03:50:11.479Z,56.10
2023-03-02T03:52:39.719Z,56.10
2023-03-02T03:55:20.769Z,56.30
2023-03-02T03:57:49.486Z,56.30
2023-03-02T04:00:18.272Z,56.30
2023-03-02T04:03:04.154Z,56.30
2023-03-02T04:05:33.148Z,56.40
2023-03-02T04:08:02.346Z,56.30
2023-03-02T04:10:30.569Z,56.20
2023-03-02T04:12:58.361Z,56.20
2023-03-02T04:15:26.456Z,56.20
2023-03-02T04:17:54.103Z,56.20
2023-03-02T04:20:24.402Z,56.30
2023-03-02T04:22:55.005Z,56.30
2023-03-02T04:25:25.018Z,56.30
2023-03-02T04:27:56.008Z,56.30
2023-03-02T04:30:27.241Z,56.40
2023-03-02T04:32:57.557Z,56.50
2023-03-02T04:35:27.057Z,56.50
2023-03-02T04:37:54.214Z,56.40
2023-03-02T04:40:21.666Z,56.50
2023-03-02T04:42:48.885Z,56.40
2023-03-02T04:45:16.255Z,56.50
2023-03-02T04:47:43.492Z,56.50
2023-03-02T04:50:14.257Z,56.60
2023-03-02T04:52:42.357Z,56.70
2023-03-02T04:55:11.573Z,56.80
2023-03-02T04:57:38.847Z,56.80
2023-03-02T05:00:09.935Z,56.80
2023-03-02T05:02:37.255Z,56.80
2023-03-02T05:05:05.106Z,56.80
2023-03-02T05:07:32.434Z,56.70
2023-03-02T05:09:59.589Z,56.90
2023-03-02T05:12:26.781Z,56.80
2023-03-02T05:14:53.789Z,56.70
2023-03-02T05:17:21.104Z,56.60
2023-03-02T05:19:48.130Z,56.60
2023-03-02T05:22:16.215Z,56.60
2023-03-02T05:24:43.185Z,56.70
2023-03-02T05:27:10.103Z,56.80
2023-03-02T05:29:37.195Z,56.70
2023-03-02T05:32:04.433Z,56.70
2023-03-02T05:34:31.412Z,56.60
2023-03-02T05:36:58.770Z,56.60
2023-03-02T05:39:27.502Z,56.60
2023-03-02T05:41:54.660Z,56.50
2023-03-02T05:44:21.912Z,56.50
2023-03-02T05:46:49.743Z,56.50
2023-03-02T05:49:16.908Z,56.40
2023-03-02T05:51:43.948Z,56.20
2023-03-02T05:54:10.980Z,56.30
2023-03-02T05:56:38.626Z,56.30
2023-03-02T05:59:05.773Z,56.30
2023-03-02T06:01:33.164Z,56.40
2023-03-02T06:04:00.360Z,56.20
2023-03-02T06:06:27.888Z,56.20
2023-03-02T06:08:55.367Z,56.50
2023-03-02T06:11:22.857Z,56.50
2023-03-02T06:13:49.903Z,56.50
2023-03-02T06:16:17.036Z,56.70
2023-03-02T06:18:44.294Z,56.70
2023-03-02T06:21:11.301Z,56.80
2023-03-02T06:23:38.473Z,57.30
2023-03-02T06:26:13.083Z,57.80
2023-03-02T06:28:51.967Z,58.20
2023-03-02T06:31:19.504Z,58.40
2023-03-02T06:33:46.467Z,58.60
2023-03-02T06:36:15.324Z,58.40
2023-03-02T06:38:42.667Z,57.70
2023-03-02T06:41:09.752Z,57.30
2023-03-02T06:43:36.913Z,56.80
2023-03-02T06:46:04.220Z,56.40
2023-03-02T06:48:31.456Z,55.80
2023-03-02T06:50:58.594Z,54.80
2023-03-02T06:53:25.756Z,54.00
2023-03-02T06:55:53.201Z,53.20
2023-03-02T06:58:20.445Z,52.00
2023-03-02T07:00:47.776Z,51.20
2023-03-02T07:03:15.012Z,50.30
2023-03-02T07:05:43.928Z,49.40
2023-03-02T07:08:12.179Z,48.50
2023-03-02T07:10:39.246Z,47.70
2023-03-02T07:13:08.916Z,47.10
2023-03-02T07:15:38.773Z,46.40
2023-03-02T07:18:06.042Z,45.50
2023-03-02T07:20:34.270Z,44.70
2023-03-02T07:23:01.314Z,44.10
2023-03-02T07:25:28.380Z,43.30
2023-03-02T07:27:55.607Z,42.90
2023-03-02T07:30:22.952Z,42.30
2023-03-02T07:32:50.095Z,41.90
2023-03-02T07:35:17.562Z,41.40
2023-03-02T07:37:44.918Z,41.00
2023-03-02T07:40:12.814Z,40.30
2023-03-02T07:42:39.868Z,40.00
2023-03-02T07:45:08.090Z,39.30
2023-03-02T07:47:35.183Z,38.80
2023-03-02T07:50:02.374Z,38.60
2023-03-02T07:52:31.033Z,38.20
2023-03-02T07:54:58.086Z,38.00
2023-03-02T07:57:25.273Z,37.70
2023-03-02T07:59:57.543Z,37.20
2023-03-02T08:02:25.847Z,36.80
2023-03-02T08:04:53.392Z,36.40
2023-03-02T08:07:20.420Z,35.80
2023-03-02T08:09:49.917Z,35.60
2023-03-02T08:12:18.229Z,35.00
2023-03-02T08:14:47.867Z,34.60
2023-03-02T08:17:14.931Z,34.30
2023-03-02T08:19:41.929Z,33.90
2023-03-02T08:22:08.919Z,33.70
2023-03-02T08:24:36.009Z,33.20
2023-03-02T08:27:04.849Z,33.00
2023-03-02T08:29:32.929Z,32.70
2023-03-02T08:32:00.691Z,32.00
2023-03-02T08:34:27.748Z,31.40
2023-03-02T08:36:54.959Z,31.10
2023-03-02T08:39:23.668Z,30.90
2023-03-02T08:41:52.703Z,30.30
2023-03-02T08:44:22.430Z,30.10
2023-03-02T08:46:51.032Z,30.40
2023-03-02T08:49:19.611Z,30.30
2023-03-02T08:51:49.101Z,30.10
2023-03-02T08:54:17.148Z,29.70
2023-03-02T08:56:44.595Z,29.20
2023-03-02T08:59:13.811Z,29.10
2023-03-02T09:01:41.667Z,28.70
2023-03-02T09:04:10.564Z,29.00
2023-03-02T09:06:40.253Z,28.60
2023-03-02T09:09:08.272Z,28.80
2023-03-02T09:11:36.359Z,28.70
2023-03-02T09:14:04.383Z,27.80
2023-03-02T09:16:32.117Z,28.10
2023-03-02T09:19:00.299Z,27.70
2023-03-02T09:21:30.266Z,27.60
2023-03-02T09:23:58.541Z,27.70
2023-03-02T09:26:28.973Z,27.60
2023-03-02T09:28:56.843Z,26.90
2023-03-02T09:31:25.583Z,26.30
2023-03-02T09:33:53.191Z,26.10
2023-03-02T09:36:22.730Z,26.60
2023-03-02T09:38:49.878Z,26.90
2023-03-02T09:41:20.004Z,26.80
2023-03-02T09:44:11.421Z,26.90
2023-03-02T09:46:59.992Z,26.80
2023-03-02T09:49:34.427Z,26.80
2023-03-02T09:52:36.549Z,27.20
2023-03-02T09:55:23.704Z,26.80
2023-03-02T09:57:51.320Z,26.30
2023-03-02T10:00:40.491Z,26.20
2023-03-02T10:03:18.764Z,26.30
2023-03-02T10:05:48.605Z,25.40
2023-03-02T10:08:21.365Z,24.50
2023-03-02T10:11:02.492Z,24.90
2023-03-02T10:13:53.810Z,24.90
2023-03-02T10:16:22.122Z,24.20
2023-03-02T10:18:58.256Z,24.30
2023-03-02T10:21:47.645Z,24.20
2023-03-02T10:24:41.366Z,24.50
2023-03-02T10:27:20.680Z,24.30
2023-03-02T10:29:58.980Z,24.20
2023-03-02T10:32:33.038Z,24.30
2023-03-02T10:35:10.668Z,24.60
2023-03-02T10:37:38.841Z,24.10
2023-03-02T10:40:11.628Z,24.60
2023-03-02T10:42:43.592Z,24.80
2023-03-02T10:45:32.749Z,25.10
2023-03-02T10:48:13.372Z,25.00
2023-03-02T10:50:43.426Z,24.80
2023-03-02T10:53:18.608Z,24.70
2023-03-02T10:55:52.604Z,24.90
2023-03-02T10:58:31.765Z,25.00
2023-03-02T11:01:15.130Z,24.60
2023-03-02T11:03:42.413Z,24.80
2023-03-02T11:06:28.939Z,25.00
2023-03-02T11:09:06.997Z,24.80
2023-03-02T11:11:35.044Z,25.00
2023-03-02T11:14:16.667Z,24.90
2023-03-02T11:16:43.958Z,25.10
2023-03-02T11:19:41.073Z,25.60
2023-03-02T11:22:30.301Z,26.00
2023-03-02T11:25:00.217Z,25.70
2023-03-02T11:27:30.637Z,25.70
2023-03-02T11:30:27.218Z,26.20
2023-03-02T11:33:13.512Z,26.10
2023-03-02T11:36:02.973Z,26.60
2023-03-02T11:38:37.117Z,26.70
2023-03-02T11:41:14.179Z,26.90
2023-03-02T11:43:41.521Z,26.90
2023-03-02T11:46:23.806Z,26.70
2023-03-02T11:48:56.395Z,26.60
2023-03-02T11:51:35.450Z,26.60
2023-03-02T11:54:11.560Z,26.50
2023-03-02T11:56:39.979Z,26.60
2023-03-02T11:59:28.906Z,26.90
2023-03-02T12:01:59.724Z,27.00
2023-03-02T12:04:34.328Z,27.30
2023-03-02T12:07:04.726Z,27.60
2023-03-02T12:09:35.832Z,27.90
2023-03-02T12:12:36.314Z,27.80
2023-03-02T12:15:04.199Z,27.80
2023-03-02T12:17:35.150Z,28.00
2023-03-02T12:20:08.552Z,28.20
2023-03-02T12:22:37.803Z,28.30
2023-03-02T12:25:20.201Z,28.30
2023-03-02T12:27:49.551Z,28.20
2023-03-02T12:30:18.735Z,28.20
2023-03-02T12:32:58.473Z,28.50
2023-03-02T12:35:26.397Z,28.70
2023-03-02T12:38:08.024Z,28.90
2023-03-02T12:40:38.153Z,29.00
2023-03-02T12:43:24.036Z,29.10
2023-03-02T12:46:00.001Z,29.10
2023-03-02T12:48:40.002Z,29.20
2023-03-02T12:51:16.809Z,29.40
2023-03-02T12:53:44.114Z,29.60
2023-03-02T12:56:25.530Z,29.40
2023-03-02T12:58:54.091Z,29.50
2023-03-02T13:01:29.961Z,29.80
2023-03-02T13:03:57.734Z,29.90
2023-03-02T13:06:29.973Z,30.00
2023-03-02T13:08:59.262Z,30.60
2023-03-02T13:11:35.188Z,31.10
2023-03-02T13:14:03.880Z,31.30
2023-03-02T13:16:34.022Z,31.20
2023-03-02T13:19:05.771Z,31.50
2023-03-02T13:21:38.368Z,31.70
2023-03-02T13:24:28.568Z,31.90
2023-03-02T13:26:58.330Z,31.90
2023-03-02T13:29:31.921Z,32.20
2023-03-02T13:32:29.130Z,32.20
2023-03-02T13:34:59.135Z,32.60
2023-03-02T13:37:43.752Z,32.80
2023-03-02T13:40:23.300Z,32.90
2023-03-02T13:42:51.557Z,33.00
2023-03-02T13:45:28.054Z,33.20
2023-03-02T13:47:58.010Z,33.20
2023-03-02T13:50:26.626Z,33.40
2023-03-02T13:52:56.837Z,33.40
2023-03-02T13:55:24.605Z,33.50
2023-03-02T13:57:53.192Z,33.60
2023-03-02T14:00:29.969Z,33.80
2023-03-02T14:02:57.030Z,34.00
2023-03-02T14:05:27.245Z,33.90
2023-03-02T14:07:54.495Z,34.10
2023-03-02T14:10:21.974Z,34.20
2023-03-02T14:12:58.399Z,34.40
2023-03-02T14:15:25.803Z,34.70
2023-03-02T14:17:52.962Z,34.60
2023-03-02T14:20:20.810Z,34.90
2023-03-02T14:22:52.871Z,35.00
2023-03-02T14:25:20.657Z,35.00
2023-03-02T14:27:47.802Z,35.20
2023-03-02T14:30:17.072Z,35.40
2023-03-02T14:32:44.221Z,35.80
2023-03-02T14:35:13.689Z,35.70
2023-03-02T14:37:47.110Z,35.80
2023-03-02T14:40:17.778Z,36.20
2023-03-02T14:42:45.081Z,36.20
2023-03-02T14:45:12.693Z,36.10
2023-03-02T14:47:40.121Z,36.40
2023-03-02T14:50:07.551Z,36.50
2023-03-02T14:52:48.325Z,36.70
2023-03-02T14:55:25.851Z,36.80
2023-03-02T14:58:05.038Z,36.80
2023-03-02T15:00:32.424Z,36.80
2023-03-02T15:02:59.821Z,37.10
2023-03-02T15:05:26.941Z,37.10
2023-03-02T15:07:58.801Z,37.30
2023-03-02T15:10:26.351Z,37.40
2023-03-02T15:12:53.624Z,37.40
2023-03-02T15:15:20.789Z,37.60
2023-03-02T15:17:47.901Z,37.50
2023-03-02T15:20:16.844Z,37.70
2023-03-02T15:22:44.910Z,37.80
2023-03-02T15:25:12.150Z,38.10
2023-03-02T15:27:41.562Z,37.90
2023-03-02T15:30:09.447Z,38.80
2023-03-02T15:32:37.819Z,38.30
2023-03-02T15:35:05.267Z,38.20
2023-03-02T15:37:33.417Z,38.70
2023-03-02T15:40:00.616Z,38.60
2023-03-02T15:42:27.811Z,38.90
2023-03-02T15:44:55.266Z,39.00
2023-03-02T15:47:23.460Z,39.00
2023-03-02T15:49:51.902Z,39.00
2023-03-02T15:52:20.079Z,39.10
2023-03-02T15:54:47.349Z,39.40
2023-03-02T15:57:14.386Z,39.50
2023-03-02T15:59:41.632Z,39.40
2023-03-02T16:02:09.941Z,39.50
2023-03-02T16:04:37.998Z,39.80
2023-03-02T16:07:05.045Z,39.80
2023-03-02T16:09:32.328Z,40.00
2023-03-02T16:11:59.423Z,40.00
2023-03-02T16:14:26.571Z,40.10
2023-03-02T16:16:53.720Z,40.30
2023-03-02T16:19:21.100Z,40.40
2023-03-02T16:21:48.728Z,40.50
2023-03-02T16:24:17.172Z,40.50
2023-03-02T16:26:45.862Z,40.70
2023-03-02T16:29:13.761Z,40.80
2023-03-02T16:31:41.353Z,41.00
2023-03-02T16:34:09.400Z,41.20
2023-03-02T16:36:38.842Z,41.30
2023-03-02T16:39:08.389Z,41.40
2023-03-02T16:41:35.965Z,41.70
2023-03-02T16:44:04.068Z,41.80
2023-03-02T16:46:36.381Z,42.00
2023-03-02T16:49:04.345Z,42.20
2023-03-02T16:51:31.418Z,42.40
2023-03-02T16:53:58.745Z,42.60
2023-03-02T16:56:26.450Z,42.80
2023-03-02T16:58:54.852Z,43.00
2023-03-02T17:01:23.269Z,43.20
2023-03-02T17:03:53.149Z,43.40
2023-03-02T17:06:22.822Z,43.50
2023-03-02T17:08:50.930Z,43.60
2023-03-02T17:11:20.207Z,43.80
2023-03-02T17:13:47.786Z,44.00
2023-03-02T17:16:16.922Z,44.30
2023-03-02T17:18:47.028Z,44.30
2023-03-02T17:21:16.539Z,44.60
2023-03-02T17:23:43.927Z,44.70
2023-03-02T17:26:12.189Z,44.80
2023-03-02T17:28:39.508Z,45.10
2023-03-02T17:31:07.219Z,45.10
2023-03-02T17:33:34.553Z,45.30
2023-03-02T17:36:07.533Z,45.40
2023-03-02T17:38:34.696Z,45.70
2023-03-02T17:41:03.792Z,45.70
2023-03-02T17:43:33.812Z,46.20
2023-03-02T17:46:11.148Z,46.40
2023-03-02T17:48:38.589Z,46.80
2023-03-02T17:51:05.937Z,47.00
2023-03-02T17:53:33.158Z,47.20
2023-03-02T17:56:00.230Z,47.60
2023-03-02T17:58:33.201Z,47.70
2023-03-02T18:01:09.997Z,47.90
2023-03-02T18:03:37.862Z,48.00
2023-03-02T18:06:05.920Z,48.10
2023-03-02T18:08:33.296Z,48.20
2023-03-02T18:11:00.840Z,48.30
2023-03-02T18:13:28.117Z,48.50
2023-03-02T18:15:55.294Z,48.70
2023-03-02T18:18:23.105Z,48.80
2023-03-02T18:20:50.107Z,49.20
2023-03-02T18:23:17.112Z,49.50
2023-03-02T18:25:45.477Z,49.70
2023-03-02T18:28:12.536Z,50.20
2023-03-02T18:30:39.828Z,50.80
2023-03-02T18:33:08.509Z,51.00
2023-03-02T18:35:35.652Z,50.90
2023-03-02T18:38:02.725Z,51.20
2023-03-02T18:40:29.914Z,51.30
2023-03-02T18:42:57.337Z,51.30
2023-03-02T18:45:28.173Z,51.50
2023-03-02T18:47:56.487Z,51.70
2023-03-02T18:50:24.753Z,51.90
2023-03-02T18:52:53.100Z,52.00
2023-03-02T18:55:21.451Z,52.00
2023-03-02T18:57:48.651Z,52.00
2023-03-02T19:00:19.291Z,52.20
2023-03-02T19:02:46.576Z,52.10
2023-03-02T19:05:13.829Z,52.20
2023-03-02T19:07:41.000Z,52.30
2023-03-02T19:10:08.775Z,52.50
2023-03-02T19:12:35.771Z,52.30
2023-03-02T19:15:03.849Z,52.50
2023-03-02T19:17:31.170Z,52.60
2023-03-02T19:19:58.865Z,52.80
2023-03-02T19:22:26.113Z,52.80
2023-03-02T19:24:53.966Z,52.80
2023-03-02T19:27:21.029Z,53.10
2023-03-02T19:29:48.078Z,53.10
2023-03-02T19:32:15.117Z,53.30
2023-03-02T19:34:42.874Z,53.30
2023-03-02T19:37:09.928Z,53.20
2023-03-02T19:39:36.993Z,53.10
2023-03-02T19:42:04.167Z,53.20
2023-03-02T19:44:31.801Z,53.30
2023-03-02T19:46:59.095Z,53.20
2023-03-02T19:49:26.438Z,53.40
2023-03-02T19:51:53.626Z,53.30
2023-03-02T19:54:20.619Z,53.60
2023-03-02T19:56:53.447Z,53.50
2023-03-02T19:59:22.359Z,53.70
2023-03-02T20:01:52.813Z,53.70
2023-03-02T20:04:19.946Z,53.70
2023-03-02T20:06:47.030Z,53.90
2023-03-02T20:09:19.550Z,53.90
2023-03-02T20:11:47.667Z,54.10
2023-03-02T20:14:27.645Z,53.90
2023-03-02T20:17:01.018Z,53.80
2023-03-02T20:19:28.362Z,53.90
2023-03-02T20:21:55.484Z,53.90
2023-03-02T20:24:22.438Z,54.70
2023-03-02T20:26:49.962Z,54.00
2023-03-02T20:29:17.813Z,54.20
2023-03-02T20:31:45.534Z,54.30
2023-03-02T20:34:16.640Z,54.20
2023-03-02T20:36:44.593Z,54.30
2023-03-02T20:39:15.737Z,54.50
2023-03-02T20:41:43.243Z,54.40
2023-03-02T20:44:13.365Z,54.50
2023-03-02T20:46:45.591Z,54.60
2023-03-02T20:49:15.465Z,54.60
2023-03-02T20:51:49.288Z,54.60
2023-03-02T20:54:16.915Z,54.60
2023-03-02T20:56:43.995Z,54.80
2023-03-02T20:59:11.321Z,55.00
2023-03-02T21:01:38.418Z,54.90
2023-03-02T21:04:05.746Z,54.80
2023-03-02T21:06:34.619Z,54.90
2023-03-02T21:09:04.625Z,54.90
2023-03-02T21:11:32.110Z,54.90
2023-03-02T21:13:59.536Z,55.20
2023-03-02T21:16:30.782Z,55.00
2023-03-02T21:18:58.430Z,55.00
2023-03-02T21:21:40.374Z,55.00
2023-03-02T21:24:10.063Z,54.90
2023-03-02T21:26:37.263Z,55.00
2023-03-02T21:29:05.481Z,55.10
2023-03-02T21:31:33.150Z,55.40
2023-03-02T21:34:00.858Z,55.70
2023-03-02T21:36:28.633Z,55.70
2023-03-02T21:38:56.176Z,55.50
2023-03-02T21:41:23.659Z,55.50
2023-03-02T21:43:50.968Z,55.80
2023-03-02T21:46:21.739Z,56.20
2023-03-02T21:48:51.514Z,56.40
2023-03-02T21:51:19.496Z,56.70
2023-03-02T21:53:46.887Z,56.80
2023-03-02T21:56:22.532Z,57.10
2023-03-02T21:58:55.285Z,57.00
2023-03-02T22:01:24.037Z,57.40
2023-03-02T22:03:51.302Z,57.70
2023-03-02T22:06:27.374Z,57.80
2023-03-02T22:08:55.708Z,57.90
2023-03-02T22:11:37.390Z,58.90
2023-03-02T22:14:16.253Z,58.20
2023-03-02T22:16:47.330Z,58.30
2023-03-02T22:19:24.756Z,59.10
2023-03-02T22:21:52.650Z,58.50
2023-03-02T22:24:29.207Z,58.60
2023-03-02T22:27:05.396Z,58.60
2023-03-02T22:29:44.256Z,58.80
2023-03-02T22:32:24.513Z,58.80
2023-03-02T22:35:08.490Z,59.10
2023-03-02T22:37:35.728Z,59.10
2023-03-02T22:40:17.488Z,59.60
2023-03-02T22:42:44.631Z,59.40
2023-03-02T22:45:22.361Z,59.50
2023-03-02T22:47:51.527Z,59.70
2023-03-02T22:50:23.218Z,59.90
2023-03-02T22:52:51.126Z,59.80
2023-03-02T22:55:36.398Z,59.90
2023-03-02T22:58:31.622Z,59.80
2023-03-02T23:01:00.501Z,60.00
2023-03-02T23:03:39.927Z,60.30
2023-03-02T23:06:31.572Z,60.20
2023-03-02T23:09:05.822Z,60.40
2023-03-02T23:11:38.030Z,60.30
2023-03-02T23:14:35.947Z,60.40
2023-03-02T23:17:14.562Z,60.50
2023-03-02T23:19:41.485Z,60.40
2023-03-02T23:22:09.578Z,60.60
2023-03-02T23:24:36.835Z,60.70
2023-03-02T23:27:04.546Z,60.70
2023-03-02T23:29:32.095Z,60.60
2023-03-02T23:31:59.161Z,60.60
2023-03-02T23:34:26.270Z,60.70
2023-03-02T23:36:53.366Z,60.80
2023-03-02T23:39:20.360Z,61.00
2023-03-02T23:41:47.717Z,61.00
2023-03-02T23:44:14.854Z,61.00
2023-03-02T23:46:42.045Z,61.10
2023-03-02T23:49:09.094Z,61.20
2023-03-02T23:51:36.359Z,61.00
2023-03-02T23:54:04.853Z,61.10
2023-03-02T23:56:32.281Z,61.30
2023-03-02T23:58:59.878Z,61.30
